Logo AVAMET
Benvolgut visitant, si us plau, ingressa Recuperar contrasenya
AVAMET paisatges
Union Alcoyana

Sella

Dades diàries. Acumulats / Últims 30 dies disponibles

Data Temperatura (°C) Humitat rel. (%) Pressió rel. (hPa) Vent (km/h) Precipitació
Mínima Mitjana Màxima Amplitud
tèrmica
Mínima Mitjana Màxima Mínima Mitjana Màxima Predom. Mitjana Ràfega
màxima
Total
(mm)
Índex-n
Mínima Mitjana Màxima Mínima Mitjana Màxima n
0 a 1
P0 max
mm 5'
Dades mensuals acumulades fins l'últim dia disponible
11/2021 5,8 10,5 18,3 13,3 11,0 16,7 23,8 18,0 19 66 98 1.003 1.014 1.027   6,4 55,5 23,8
Dades anuals acumulades fins l'últim dia disponible
2021 1,7 14,5 29,5 18,1 7,7 22,5 40,8 39,1 2 63 98 0 999 1.029   6,7 85,1 349,6
Últims 30 dies disponibles
26-11-2021 7,3     9,2     12,8 5,5 45 58 71 1.005 1.006 1.007 NO 5,4 25,9 0,0
25-11-2021 5,8     9,9     13,7 7,9 50 62 74 1.003 1.005 1.008 NO 6,9 37,0 0,0
24-11-2021 5,8     8,5     11,0 5,2 51 73 94 1.007 1.009 1.011 NO 6,6 27,8 6,0 0,52 1,40
23-11-2021 7,4     11,4     15,4 8,0 34 65 95 1.007 1.010 1.011 NNO 7,6 24,1 1,9 0,07 0,40
22-11-2021 10,3     12,6     15,7 5,4 68 82 96 1.007 1.009 1.011 NNO 6,3 18,5 1,7
21-11-2021 11,0     13,4     17,4 6,4 61 79 96 1.011 1.013 1.017 NNO 3,8 18,5 3,6 0,23 0,30
20-11-2021 12,7     14,5     16,2 3,5 64 77 89 1.017 1.021 1.025 NO 4,1 18,5 0,2
19-11-2021 9,8     12,8     16,6 6,8 62 75 87 1.024 1.025 1.026 NO 4,6 27,8 0,0
18-11-2021 10,4     11,5     13,3 2,9 79 89 98 1.021 1.024 1.027 NNO 4,1 20,4 5,1 0,34 0,70
17-11-2021 9,9     13,9     18,0 8,1 54 69 84 1.015 1.019 1.022 NNO 6,9 20,4 0,0
15-11-2021 10,5     12,9     16,2 5,7 37 52 67 1.011 1.014 1.017 NO 7,3 29,6 0,0
14-11-2021 10,9     13,8     18,7 7,8 64 75 86 1.013 1.015 1.018 NNO 9,5 22,2 0,0
13-11-2021 11,4     14,7     19,3 7,9 52 71 90 1.015 1.017 1.019 NNO 5,8 20,4 0,0
12-11-2021 13,5     14,8     16,6 3,1 65 79 92 1.013 1.015 1.017 NO 5,1 25,9 0,4
11-11-2021 11,0     14,8     19,8 8,8 46 69 91 1.015 1.016 1.017 NNO 6,3 22,2 0,0
10-11-2021 11,2     13,0     16,5 5,3 56 74 92 1.013 1.015 1.016 NO 8,3 33,3 3,0
09-11-2021 12,0     14,2     17,4 5,4 48 65 82 1.013 1.015 1.017 NO 5,0 24,1 0,2
08-11-2021 10,5     14,1     18,9 8,4 33 47 60 1.013 1.015 1.017 NNO 7,5 22,2 0,0
07-11-2021 9,8     12,8     17,5 7,7 19 35 51 1.015 1.018 1.019 NNO 7,9 25,9 0,0
06-11-2021 8,9     11,9     15,0 6,1 27 55 82 1.017 1.018 1.019 ONO 7,0 40,7 0,4
05-11-2021 8,2     11,4     14,7 6,5 41 65 89 1.014 1.017 1.020 NO 6,4 22,2 1,3 0,51 0,50
04-11-2021 10,6     12,5     16,3 5,7 35 50 65 1.009 1.011 1.015 NNO 6,9 29,6 0,0
03-11-2021 10,4     14,1     16,2 5,8 38 58 78 1.004 1.007 1.010 NO 8,3 55,5 0,0
02-11-2021 15,6     17,4     20,9 5,3 46 63 80 1.008 1.012 1.014 NO 6,7 48,1 0,0
01-11-2021 18,3     21,4     23,8 5,5 49 62 75 1.010 1.012 1.013 NO 6,2 31,4 0,0
31-10-2021 17,1     21,5     26,2 9,1 50 73 96 1.011 1.013 1.015 NO 5,3 33,3 0,0
30-10-2021 15,2     18,0     21,3 6,1 65 79 93 1.009 1.012 1.014 NNO 3,8 18,5 1,2
29-10-2021 13,2     16,2     20,2 7,0 65 78 91 1.013 1.015 1.017 NNO 5,9 20,4 0,0
28-10-2021 12,7     15,4     19,2 6,5 67 79 90 1.016 1.018 1.020 NNO 6,8 20,4 0,0
27-10-2021 11,2     15,2     20,1 8,9 60 77 94 1.019 1.021 1.023 NNO 8,5 24,1 0,2
Últims 13 mesos disponibles
10/2021 11,2 14,7 18,9 18,1 19,1 22,4 27,0 15,8 53 74 86 1.012 1.019 1.026 NNO 6,7 42,5 12,8
09/2021 15,1 19,7 22,8 23,2 22,7 27,7 31,2 16,1 46 67 82 1.014 1.018 1.025 NNO 6,8 40,7 39,4
08/2021 18,2 22,1 29,5 26,1 25,5 30,8 40,8 22,6 21 59 86 1.009 1.017 1.021 NNO 6,5 40,7 11,7
07/2021 16,9 20,5 26,4 25,2 25,6 30,2 38,7 21,8 23 60 79 1.011 1.016 1.022 NNO 6,3 38,9 9,2
06/2021 15,3 18,4 21,9 22,4 22,0 27,4 32,2 16,9 35 62 85 1.012 1.017 1.021 NNO 5,2 33,3 9,9
05/2021 11,3 14,5 21,7 18,8 19,0 24,0 32,2 20,9 34 61 84 1.010 1.017 1.023 N 4,9 46,3 52,0
04/2021 5,7 10,4 14,0 13,9 12,5 18,3 25,5 19,8 31 72 91 954 987 1.019 ONO 5,1 29,6 98,2
03/2021 4,1 9,0 13,4 12,5 8,3 16,5 22,9 18,8 27 61 87 953 963 969 OSO 7,9 55,5 44,8
02/2021 5,0 10,0 14,4 13,2 9,8 17,2 23,1 18,1 45 59 97 945 960 975 O 8,8 75,9 13,3
01/2021 1,7 7,5 18,7 10,4 7,7 14,2 26,0 24,3 24 58 85 428 962 1.021 O 9,8 85,1 34,5
12/2020 3,7 8,3 13,3 11,5 9,8 15,4 20,8 17,1 29 55 76 996 1.013 1.025 NW 10,5 81,4 9,5
11/2020 6,9 11,8 16,9 15,0 14,0 19,2 25,3 18,4 49 70 87 1.003 1.020 1.027 NW 8,1 33,3 26,1
10/2020 10,6 13,7 19,0 17,6 18,0 22,2 29,1 18,5 38 54 82 999 1.016 1.024 WNW 8,2 74,0 3,1
Tots els anys disponibles
2020 3,7 14,2 25,8 17,8 9,8 22,0 36,0 32,3 17 61 98 996 1.017 1.030 NW 7,8 81,4 452,7
2019 1,9 13,6 26,3 17,2 9,7 21,6 36,6 34,7 11 62 94 995 1.015 1.029 NW 7,9 77,7 612,1
2018 1,5 13,4 25,6 17,0 6,9 21,3 33,7 32,2 26 70 93 998 1.017 1.028 NW 6,9 70,3 555,7
2017 0,2 13,4 26,9 17,2 5,7 21,7 37,0 36,8 32 50 68 1.010 1.015 1.021 7,3 64,8 559,8
2016 2,7 13,8 26,9 17,3 8,3 21,5 37,1 34,4 7,0 66,6 475,5
Temperatura (°C)
Humitat relativa (%)
Velocitat del vent i ràfega màxima (km/h)
Direcció del vent (°)
Pressió (hPa)
Precipitació (mm)
Nota sobre les dades: s'avisa a l'usuari de la provisionalitat i no oficialitat d'aquestes dades
Logo AVAMET blanc
Web allotjada a Sollutia
Llicència de Creative CommonsLa web d'AVAMET i els seus continguts estan subjectes a una llicència de
Reconeixement - No Comercial - Compartir igual
Avís legal - Política de privacitat - Política de cookies
NOVES ESTACIONS: Castelló de la Plana - IES Francesc Ribalta (Soci) / Castelló de la Plana - Camí de la Plana (Soci) /  Aspe - Calle San Juan (Soci) / El Ràfol d'Almúnia (Ajuntament Soci) / Nules (Platja) - l'Estany (Soci) / Soneja (Ajuntament Soci) / Castalla - CEIP Rico Sapena (Soci) / Ontinyent - Col·legi La Milagrosa (Soci) / l'Alcúdia de Veo - Veo (Soci) / Cullera - Far (Soci) / Loriguilla - Pozalet (Soci) / Polop (Ajuntament Soci) / Viver - Cooperativa (Soci) - - -